GMMH

Details ICAO GMMH (VIL)
Name Dakhla International
Region Morocco
Timezone Africa/El_Aaiun (UTC+0.0)
Plans Departing 50
Arriving 62
Stats Elevation 36 ft / 11 m (AMSL)
Location 23.718300° -15.931900°
Runways 1
Magnetic Variation 5.163° W
Sunrise 2018-11-16 07:20:17 UTC / 2018-11-16 07:20:17 Local
Sunset 2018-11-16 18:19:31 UTC / 2018-11-16 18:19:31 Local
Advertisement - Login to hide

Runways

ID Width Length Bearing (true/mag) Surface Threshold Overrun Markings Lighting
03 142 ft / 43 m 9,834 ft / 2,997 m 22.69° / 27.85° ASPHALT 0 ft / 0 m 0 ft / 0 m PREC-APP EDGE THRESHOLD
21 142 ft / 43 m 9,834 ft / 2,997 m 202.69° / 207.86° ASPHALT 0 ft / 0 m 0 ft / 0 m PREC-APP EDGE THRESHOLD

Map

Weather


0- 5 10 15 20 25 30 35+ Temperature / °C

Clouds and Precipitation
Forecast for 2018-11-16 00:00 UTC. Updated 4 hours ago

Ground ~20,000 ft ~40,000 ft Winds

METAR

Not found

TAF

TAF GMMH 152300Z 1600/1706 03009KT CAVOK PROB30 1602/1608 3000 BR

Frequencies

Tower 118.10 MHz Dakhla Airport Tower
Warning: Do not use this data for real-world aviation or navigation. No guarantee of current accuracy is given.